Time;durP1;ratioP1;P1;durP2;ratioP2;P2;SDS_P1;SDS_P2;PMS_P1;PMS_P2;Temp;Humidity;BMP_temperature;BMP_pressure;BME280_temperature;BME280_humidity;BME280_pressure;Samples;Min_cycle;Max_cycle;Signal;HPM_P1;HPM_P2
2021/11/18 00:01:15;;;;;;;;;17.00;15.75;;;;;15.32;51.27;99017.03;4810676;28;102601;-64
2021/11/18 00:03:44;;;;;;;;;17.00;15.75;;;;;15.31;51.16;99014.56;4801968;29;102624;-64
2021/11/18 00:06:11;;;;;;;;;14.50;13.00;;;;;15.31;51.15;99012.63;4811757;28;104836;-64
2021/11/18 00:08:38;;;;;;;;;14.00;12.75;;;;;15.29;51.40;98997.59;4814634;29;108919;-64
2021/11/18 00:11:07;;;;;;;;;19.50;16.50;;;;;15.31;51.08;99020.00;4811442;28;102641;-64
2021/11/18 00:13:40;;;;;;;;;17.00;14.50;;;;;15.31;51.03;99020.00;4816217;29;102287;-64
2021/11/18 00:16:07;;;;;;;;;18.75;15.00;;;;;15.29;51.03;99017.50;4810403;28;102735;-64
2021/11/18 00:18:35;;;;;;;;;18.25;14.50;;;;;15.30;51.19;99029.22;4803778;29;104165;-64
2021/11/18 00:21:08;;;;;;;;;14.50;13.50;;;;;15.28;51.09;99017.69;4813851;28;102245;-64
2021/11/18 00:23:38;;;;;;;;;18.25;15.25;;;;;15.28;50.94;99018.53;4791995;29;103615;-64
2021/11/18 00:26:05;;;;;;;;;16.50;12.50;;;;;15.28;51.14;99028.59;4812301;29;104183;-64
2021/11/18 00:28:32;;;;;;;;;15.50;12.50;;;;;15.28;51.51;99028.59;4802656;29;105756;-64
2021/11/18 00:31:00;;;;;;;;;16.50;14.25;;;;;15.26;51.03;99028.84;4813434;28;102549;-64
2021/11/18 00:33:27;;;;;;;;;18.00;13.25;;;;;15.25;50.64;99034.50;4811831;28;103015;-64
2021/11/18 00:35:54;;;;;;;;;15.75;13.75;;;;;15.25;50.91;99026.31;4817701;28;113166;-64
2021/11/18 00:38:21;;;;;;;;;16.25;15.00;;;;;15.23;50.63;99029.25;4812314;28;104308;-64
2021/11/18 00:40:49;;;;;;;;;16.25;13.00;;;;;15.22;51.26;99032.22;4809258;28;102607;-64
2021/11/18 00:43:16;;;;;;;;;14.75;13.00;;;;;15.22;50.84;99027.59;4822768;28;103490;-64
2021/11/18 00:45:44;;;;;;;;;14.75;12.50;;;;;15.20;50.96;99029.72;4811512;28;102456;-64
2021/11/18 00:48:11;;;;;;;;;15.00;14.75;;;;;15.19;50.81;99015.25;4809363;28;108990;-65
2021/11/18 00:50:49;;;;;;;;;13.25;12.25;;;;;15.19;50.70;99026.16;4803380;29;102656;-65
2021/11/18 00:53:33;;;;;;;;;12.00;11.25;;;;;15.19;50.96;99026.16;4800330;28;102873;-65
2021/11/18 00:56:00;;;;;;;;;16.25;14.50;;;;;15.17;50.88;99020.06;4812203;28;102550;-64
2021/11/18 00:58:27;;;;;;;;;13.75;12.75;;;;;15.17;50.77;99022.00;4814968;28;104284;-64
2021/11/18 01:00:54;;;;;;;;;8.00;5.25;;;;;15.17;50.99;99028.25;4812406;28;102108;-64
2021/11/18 01:03:22;;;;;;;;;17.00;14.50;;;;;15.15;50.86;99027.66;4772872;28;103453;-64
2021/11/18 01:05:50;;;;;;;;;14.25;12.75;;;;;15.14;50.47;99031.41;4778665;28;102628;-64
2021/11/18 01:08:17;;;;;;;;;17.75;14.75;;;;;15.14;50.85;99025.97;4790162;29;104105;-64
2021/11/18 01:10:47;;;;;;;;;14.50;13.75;;;;;15.14;50.92;99025.97;4812168;28;102207;-64
2021/11/18 01:13:15;;;;;;;;;14.75;13.25;;;;;15.12;50.85;99027.25;4814364;28;102689;-64
2021/11/18 01:15:43;;;;;;;;;14.00;8.75;;;;;15.12;50.66;99032.72;4810686;28;104738;-64
2021/11/18 01:18:10;;;;;;;;;15.25;12.75;;;;;15.12;50.76;99028.09;4798485;28;104255;-64
2021/11/18 01:20:38;;;;;;;;;16.75;12.25;;;;;15.10;50.73;99030.19;4809624;28;104786;-63
2021/11/18 01:23:08;;;;;;;;;16.00;13.00;;;;;15.10;50.96;99040.25;4820197;28;102890;-64
2021/11/18 01:25:36;;;;;;;;;13.75;11.25;;;;;15.09;50.60;99036.69;4808175;28;103232;-64
2021/11/18 01:28:04;;;;;;;;;14.00;12.75;;;;;15.10;50.51;99035.63;4801737;28;105725;-64
2021/11/18 01:30:32;;;;;;;;;14.75;13.25;;;;;15.09;50.50;99042.13;4797552;29;102786;-64
2021/11/18 01:32:59;;;;;;;;;15.75;14.25;;;;;15.10;50.55;99034.81;4797123;28;103664;-64
2021/11/18 01:35:26;;;;;;;;;11.75;10.25;;;;;15.09;50.39;99033.97;4799612;29;102832;-64
2021/11/18 01:37:53;;;;;;;;;14.25;12.75;;;;;15.08;50.61;99032.28;4809389;28;104094;-64
2021/11/18 01:40:23;;;;;;;;;10.75;8.50;;;;;15.08;50.62;99036.94;4817472;28;104070;-64
2021/11/18 01:42:50;;;;;;;;;13.50;10.75;;;;;15.07;50.67;99041.53;4796360;28;106012;-64
2021/11/18 01:45:17;;;;;;;;;13.00;11.50;;;;;15.05;50.90;99049.06;4813715;28;102561;-64
2021/11/18 01:47:45;;;;;;;;;12.75;11.00;;;;;15.06;50.32;99050.75;4815064;28;105851;-64
2021/11/18 01:50:15;;;;;;;;;13.75;11.00;;;;;15.05;50.38;99048.25;4811726;28;103936;-64
2021/11/18 01:52:44;;;;;;;;;12.25;10.00;;;;;15.04;50.68;99047.41;4813736;28;103644;-64
2021/11/18 01:55:11;;;;;;;;;12.00;11.25;;;;;15.04;50.76;99041.16;4805662;28;102552;-64
2021/11/18 01:57:38;;;;;;;;;13.75;12.00;;;;;15.02;50.62;99054.13;4803557;28;104070;-64
2021/11/18 02:00:24;;;;;;;;;12.25;9.00;;;;;15.02;50.57;99041.34;4813454;28;103693;-64
2021/11/18 02:02:51;;;;;;;;;13.25;11.25;;;;;15.01;50.49;99034.22;4728339;28;104785;-63
2021/11/18 02:05:30;;;;;;;;;12.00;11.75;;;;;15.01;50.36;99036.13;4793911;28;102579;-63
2021/11/18 02:07:57;;;;;;;;;9.25;8.50;;;;;14.99;50.32;99044.53;4786227;28;108961;-64
2021/11/18 02:10:30;;;;;;;;;9.50;9.50;;;;;15.00;50.55;99040.72;4773148;28;102619;-64
2021/11/18 02:13:00;;;;;;;;;12.25;9.50;;;;;14.98;50.63;99042.84;4819017;28;102507;-64
2021/11/18 02:15:37;;;;;;;;;10.00;9.50;;;;;14.98;50.12;99048.28;4819380;28;103365;-64
2021/11/18 02:18:19;;;;;;;;;12.75;9.75;;;;;14.99;50.36;99044.53;4811840;28;104253;-64
2021/11/18 02:20:47;;;;;;;;;13.50;11.50;;;;;14.99;50.53;99033.63;4816283;29;103810;-64
2021/11/18 02:23:19;;;;;;;;;10.50;10.50;;;;;14.99;50.31;99039.06;4812864;28;103565;-64
2021/11/18 02:25:50;;;;;;;;;10.50;9.75;;;;;14.98;50.02;99036.56;4806782;29;102659;-64
2021/11/18 02:28:19;;;;;;;;;13.25;10.75;;;;;14.97;50.28;99054.78;4805450;28;109857;-63
2021/11/18 02:30:48;;;;;;;;;8.50;8.50;;;;;14.97;50.26;99062.13;4775302;29;102361;-64
2021/11/18 02:33:16;;;;;;;;;13.00;10.25;;;;;14.96;50.51;99061.28;4790851;28;102628;-63
2021/11/18 02:35:44;;;;;;;;;9.75;8.25;;;;;14.95;49.99;99065.03;4794341;28;103663;-63
2021/11/18 02:38:12;;;;;;;;;9.00;6.50;;;;;14.96;50.15;99065.88;4806394;28;104311;-64
2021/11/18 02:40:41;;;;;;;;;10.50;10.00;;;;;14.94;50.29;99060.69;4811870;28;102517;-64
2021/11/18 02:43:08;;;;;;;;;11.75;9.00;;;;;14.94;50.38;99057.97;4812354;29;102473;-64
2021/11/18 02:45:36;;;;;;;;;13.75;10.25;;;;;14.94;50.40;99071.56;4797056;28;103168;-64
2021/11/18 02:48:03;;;;;;;;;9.00;9.00;;;;;14.93;50.26;99069.91;4818198;28;103970;-64
2021/11/18 02:50:35;;;;;;;;;11.00;8.75;;;;;14.93;50.27;99080.78;4809450;28;102263;-64
2021/11/18 02:53:03;;;;;;;;;13.25;10.75;;;;;14.91;50.17;99085.59;4816937;28;103256;-64
2021/11/18 02:55:33;;;;;;;;;8.50;8.50;;;;;14.91;50.20;99077.44;4821935;28;103651;-64
2021/11/18 02:58:00;;;;;;;;;11.00;10.00;;;;;14.91;50.23;99076.59;4803573;28;104215;-64
2021/11/18 03:00:31;;;;;;;;;14.25;10.50;;;;;14.91;50.23;99090.22;4823584;29;102234;-64
2021/11/18 03:02:58;;;;;;;;;13.25;9.50;;;;;14.91;50.13;99085.59;4816211;28;102621;-64
2021/11/18 03:05:25;;;;;;;;;7.25;7.00;;;;;14.91;50.41;99091.03;4820688;28;103522;-64
2021/11/18 03:07:52;;;;;;;;;8.00;6.75;;;;;14.90;49.96;99083.94;4822242;28;104075;-64
2021/11/18 03:10:21;;;;;;;;;12.25;9.25;;;;;14.90;50.04;99086.69;4811429;28;103488;-64
2021/11/18 03:12:49;;;;;;;;;7.25;7.25;;;;;14.90;50.09;99083.94;4817738;28;104512;-64
2021/11/18 03:15:16;;;;;;;;;11.00;8.75;;;;;14.89;50.45;99082.28;4818827;28;102179;-64
2021/11/18 03:17:43;;;;;;;;;8.75;8.75;;;;;14.89;50.06;99086.88;4817891;28;103947;-64
2021/11/18 03:20:12;;;;;;;;;8.50;7.75;;;;;14.88;50.61;99091.50;4815953;28;104159;-63
2021/11/18 03:22:40;;;;;;;;;8.00;7.75;;;;;14.87;49.99;99089.81;4816677;28;111415;-63
2021/11/18 03:25:07;;;;;;;;;8.75;8.75;;;;;14.88;49.87;99091.50;4820475;28;103568;-64
2021/11/18 03:27:35;;;;;;;;;8.75;8.25;;;;;14.88;50.02;99091.50;4812751;28;104201;-64
2021/11/18 03:30:04;;;;;;;;;12.00;8.25;;;;;14.87;49.97;99094.41;4822601;28;102455;-64
2021/11/18 03:32:37;;;;;;;;;11.00;9.00;;;;;14.85;49.78;99101.97;4817305;28;102691;-64
2021/11/18 03:35:04;;;;;;;;;8.25;7.75;;;;;14.84;49.79;99100.31;4817031;28;103460;-64
2021/11/18 03:37:31;;;;;;;;;8.25;7.50;;;;;14.84;50.42;99100.31;4812691;28;104004;-64
2021/11/18 03:39:58;;;;;;;;;9.75;8.50;;;;;14.83;50.36;99110.34;4805611;28;102635;-64
2021/11/18 03:42:25;;;;;;;;;8.50;7.50;;;;;14.83;49.96;99090.47;4790959;28;102888;-64
2021/11/18 03:44:54;;;;;;;;;8.25;8.00;;;;;14.82;49.99;99097.78;4809596;29;110982;-63
2021/11/18 03:47:21;;;;;;;;;8.50;8.00;;;;;14.83;49.88;99093.19;4805229;28;109018;-64
2021/11/18 03:49:48;;;;;;;;;8.50;8.00;;;;;14.84;50.07;99097.59;4802002;29;103900;-64
2021/11/18 03:52:16;;;;;;;;;10.00;9.75;;;;;14.83;49.78;99094.03;4817210;28;103252;-64
2021/11/18 03:54:44;;;;;;;;;8.25;8.00;;;;;14.83;50.31;99104.06;4815380;28;102517;-64
2021/11/18 03:57:11;;;;;;;;;8.75;8.50;;;;;14.82;50.22;99095.06;4815488;29;104089;-64
2021/11/18 03:59:39;;;;;;;;;8.00;7.25;;;;;14.82;49.93;99096.94;4806327;28;102569;-64
2021/11/18 04:02:06;;;;;;;;;11.25;9.25;;;;;14.79;50.35;99098.22;4815281;29;102468;-64
2021/11/18 04:04:37;;;;;;;;;7.00;7.00;;;;;14.79;49.82;99092.78;4797971;29;104514;-64
2021/11/18 04:07:06;;;;;;;;;8.75;7.75;;;;;14.79;50.13;99103.69;4796021;28;104364;-64
2021/11/18 04:09:33;;;;;;;;;9.50;7.00;;;;;14.80;49.83;99112.69;4811856;29;104181;-64
2021/11/18 04:12:00;;;;;;;;;9.50;9.25;;;;;14.78;50.24;99102.00;4815869;28;103451;-64
2021/11/18 04:14:28;;;;;;;;;7.75;7.00;;;;;14.77;50.10;99105.75;4806029;28;102784;-64
2021/11/18 04:16:55;;;;;;;;;9.25;8.00;;;;;14.76;49.68;99104.13;4817745;29;105018;-64
2021/11/18 04:19:22;;;;;;;;;9.25;7.25;;;;;14.78;49.85;99112.88;4815450;28;102238;-64
2021/11/18 04:21:49;;;;;;;;;9.75;8.25;;;;;14.75;50.28;99107.88;4814650;28;102217;-64
2021/11/18 04:24:19;;;;;;;;;7.50;6.75;;;;;14.74;50.05;99112.50;4819747;29;102608;-63
2021/11/18 04:26:46;;;;;;;;;7.75;6.25;;;;;14.76;49.77;99108.72;4816635;28;104045;-64
2021/11/18 04:29:15;;;;;;;;;8.00;7.75;;;;;14.77;50.21;99107.69;4812931;28;104202;-64
2021/11/18 04:31:42;;;;;;;;;8.25;7.50;;;;;14.77;49.69;99113.13;4815264;29;102506;-63
2021/11/18 04:34:09;;;;;;;;;8.00;6.50;;;;;14.76;49.67;99120.44;4812461;28;102395;-64
2021/11/18 04:36:38;;;;;;;;;11.25;8.00;;;;;14.77;49.64;99124.00;4812219;28;104325;-64
2021/11/18 04:39:08;;;;;;;;;7.00;7.00;;;;;14.76;50.04;99128.63;4810346;28;102622;-63
2021/11/18 04:41:35;;;;;;;;;7.00;7.00;;;;;14.76;49.82;99135.94;4800859;28;104248;-64
2021/11/18 04:44:03;;;;;;;;;8.00;6.75;;;;;14.75;49.60;99135.09;4804499;28;103950;-64
2021/11/18 04:46:30;;;;;;;;;9.50;6.00;;;;;14.73;49.68;99138.03;4807881;29;104364;-64
2021/11/18 04:48:57;;;;;;;;;8.00;7.75;;;;;14.73;49.64;99137.19;4805935;28;102472;-64
2021/11/18 04:51:25;;;;;;;;;9.75;8.00;;;;;14.73;49.71;99139.91;4810625;28;102550;-64
2021/11/18 04:53:52;;;;;;;;;7.75;6.75;;;;;14.73;49.76;99142.63;4808697;28;102696;-63
2021/11/18 04:56:19;;;;;;;;;6.50;6.00;;;;;14.72;49.81;99147.25;4817545;28;104164;-64
2021/11/18 04:58:46;;;;;;;;;4.50;3.75;;;;;14.72;50.25;99151.88;4795202;29;103586;-64
2021/11/18 05:01:13;;;;;;;;;6.75;6.50;;;;;14.70;50.56;99156.69;4821228;29;103322;-64
2021/11/18 05:03:41;;;;;;;;;6.00;6.00;;;;;14.67;50.46;99146.22;4817727;28;102877;-64
2021/11/18 05:06:08;;;;;;;;;7.00;6.25;;;;;14.70;49.85;99145.81;4798870;28;104066;-64
2021/11/18 05:08:35;;;;;;;;;7.00;6.25;;;;;14.69;50.73;99144.13;4808918;28;102509;-64
2021/11/18 05:11:03;;;;;;;;;7.25;6.25;;;;;14.68;50.24;99128.84;4814115;28;104868;-64
2021/11/18 05:13:30;;;;;;;;;6.00;6.00;;;;;14.70;50.25;99143.06;4809808;28;103506;-64
2021/11/18 05:15:58;;;;;;;;;9.25;6.50;;;;;14.71;49.86;99144.75;4816013;28;104089;-64
2021/11/18 05:18:27;;;;;;;;;5.00;4.75;;;;;14.71;49.85;99156.47;4813169;28;102290;-63
2021/11/18 05:20:54;;;;;;;;;11.25;7.25;;;;;14.72;49.86;99151.88;4812077;28;102695;-63
2021/11/18 05:23:21;;;;;;;;;7.50;7.00;;;;;14.71;50.30;99163.81;4808393;28;103959;-64
2021/11/18 05:25:49;;;;;;;;;7.00;6.00;;;;;14.71;50.35;99158.38;4823351;28;104189;-64
2021/11/18 05:28:16;;;;;;;;;8.00;6.50;;;;;14.71;50.00;99163.81;4817566;28;102693;-64
2021/11/18 05:30:43;;;;;;;;;4.00;4.00;;;;;14.70;49.79;99160.25;4817694;28;105191;-64
2021/11/18 05:33:11;;;;;;;;;6.25;6.25;;;;;14.69;49.81;99169.47;4812936;28;102656;-63
2021/11/18 05:35:39;;;;;;;;;6.00;4.75;;;;;14.69;49.71;99164.00;4805742;28;104282;-64
2021/11/18 05:38:06;;;;;;;;;10.75;7.25;;;;;14.68;49.80;99166.94;4802243;28;102598;-64
2021/11/18 05:40:34;;;;;;;;;6.00;5.25;;;;;14.68;50.03;99166.94;4800705;29;102285;-64
2021/11/18 05:43:01;;;;;;;;;8.75;7.00;;;;;14.67;49.78;99163.41;4806323;28;104111;-64
2021/11/18 05:45:29;;;;;;;;;4.00;3.00;;;;;14.67;49.73;99160.69;4810474;29;104130;-64
2021/11/18 05:47:56;;;;;;;;;6.00;5.00;;;;;14.66;50.04;99159.00;4811369;28;102406;-64
2021/11/18 05:50:23;;;;;;;;;5.75;5.00;;;;;14.65;49.69;99161.94;4798373;28;102544;-64
2021/11/18 05:52:50;;;;;;;;;7.00;6.00;;;;;14.66;49.68;99166.34;4812517;28;102175;-64
2021/11/18 05:55:19;;;;;;;;;6.00;6.00;;;;;14.64;50.07;99162.97;4809475;28;108362;-64
2021/11/18 05:57:46;;;;;;;;;8.50;6.50;;;;;14.65;49.81;99170.94;4813073;28;102594;-64
2021/11/18 06:00:16;;;;;;;;;7.00;5.00;;;;;14.66;49.89;99177.22;4815960;28;104311;-63
2021/11/18 06:02:43;;;;;;;;;5.00;5.00;;;;;14.66;49.70;99174.50;4811209;28;103690;-64
2021/11/18 06:05:10;;;;;;;;;6.00;6.00;;;;;14.66;49.74;99178.06;4811033;29;105232;-64
2021/11/18 06:07:37;;;;;;;;;6.50;5.75;;;;;14.66;49.86;99188.94;4823278;28;102500;-64
2021/11/18 06:10:05;;;;;;;;;7.25;6.00;;;;;14.64;49.98;99185.59;4814438;28;102288;-64
2021/11/18 06:12:32;;;;;;;;;7.75;5.25;;;;;14.64;49.50;99187.47;4819188;28;102555;-64
2021/11/18 06:14:59;;;;;;;;;6.25;6.25;;;;;14.63;50.16;99188.53;4816562;29;103932;-64
2021/11/18 06:17:26;;;;;;;;;6.00;6.00;;;;;14.64;49.96;99184.75;4816549;28;102306;-64
2021/11/18 06:19:53;;;;;;;;;7.00;7.00;;;;;14.64;49.94;99187.47;4810482;28;102889;-64
2021/11/18 06:22:25;;;;;;;;;5.00;5.00;;;;;14.63;49.86;99186.63;4815277;28;102518;-64
2021/11/18 06:24:52;;;;;;;;;5.00;5.00;;;;;14.63;49.43;99189.34;4812489;28;104228;-64
2021/11/18 06:27:19;;;;;;;;;6.00;5.00;;;;;14.63;49.62;99192.06;4819066;28;102502;-64
2021/11/18 06:29:46;;;;;;;;;7.75;5.00;;;;;14.62;49.52;99204.03;4816776;28;102702;-64
2021/11/18 06:32:13;;;;;;;;;4.50;4.50;;;;;14.61;49.57;99202.34;4817833;28;103238;-64
2021/11/18 06:34:41;;;;;;;;;5.00;5.00;;;;;14.62;49.50;99198.59;4812792;29;104262;-64
2021/11/18 06:37:09;;;;;;;;;5.25;5.25;;;;;14.61;49.57;99201.50;4812952;29;110690;-64
2021/11/18 06:39:56;;;;;;;;;8.50;7.00;;;;;14.61;49.80;99213.25;4816391;28;102554;-63
2021/11/18 06:42:23;;;;;;;;;7.75;5.00;;;;;14.61;49.66;99209.69;4799226;29;103718;-63
2021/11/18 06:44:50;;;;;;;;;5.75;5.75;;;;;14.62;49.61;99211.34;4775763;29;104096;-64
2021/11/18 06:47:17;;;;;;;;;6.50;6.25;;;;;14.61;49.71;99215.13;4803968;29;102333;-64
2021/11/18 06:49:44;;;;;;;;;6.50;4.75;;;;;14.61;49.93;99213.25;4787110;29;112160;-64
2021/11/18 06:52:11;;;;;;;;;6.25;6.00;;;;;14.60;49.48;99208.84;4797188;29;102747;-64
2021/11/18 06:54:38;;;;;;;;;5.25;5.00;;;;;14.61;49.57;99212.41;4795731;29;104043;-63
2021/11/18 06:57:05;;;;;;;;;5.50;5.00;;;;;14.60;49.86;99205.28;4794563;29;102734;-64
2021/11/18 06:59:32;;;;;;;;;7.50;6.00;;;;;14.61;49.66;99212.41;4796181;29;102243;-64
2021/11/18 07:05:47;;;;;;;;;7.25;5.00;;;;;14.60;49.57;99224.31;4787655;29;102668;-63
2021/11/18 07:08:14;;;;;;;;;5.00;4.50;;;;;14.59;49.96;99234.38;4796730;29;102622;-63
2021/11/18 07:10:42;;;;;;;;;6.00;6.00;;;;;14.59;49.55;99225.41;4793419;29;103211;-63
2021/11/18 07:13:16;;;;;;;;;8.00;6.50;;;;;14.59;49.36;99223.50;4809132;29;102726;-64
2021/11/18 07:15:43;;;;;;;;;5.75;5.75;;;;;14.58;49.60;99226.44;4813525;28;104076;-64
2021/11/18 07:18:10;;;;;;;;;6.75;6.50;;;;;14.57;49.71;99219.31;4803466;28;104299;-64
2021/11/18 07:20:39;;;;;;;;;8.00;6.00;;;;;14.57;49.63;99222.03;4810315;29;104546;-62
2021/11/18 07:23:07;;;;;;;;;7.00;5.75;;;;;14.56;49.86;99223.09;4821642;28;102757;-64
2021/11/18 07:25:34;;;;;;;;;5.50;4.00;;;;;14.57;49.87;99224.75;4805465;28;104257;-63
2021/11/18 07:28:01;;;;;;;;;6.50;5.00;;;;;14.55;49.80;99226.84;4807961;29;104250;-64
2021/11/18 07:30:28;;;;;;;;;7.00;5.25;;;;;14.54;49.70;99236.91;4809961;29;104093;-63
2021/11/18 07:32:55;;;;;;;;;6.00;5.75;;;;;14.55;49.69;99237.72;4812901;28;102850;-64
2021/11/18 07:35:22;;;;;;;;;5.00;4.50;;;;;14.56;49.46;99242.97;4809736;28;104110;-63
2021/11/18 07:37:49;;;;;;;;;7.00;6.25;;;;;14.56;49.58;99239.41;4818678;29;102427;-64
2021/11/18 07:40:18;;;;;;;;;5.75;5.00;;;;;14.56;49.51;99240.25;4809426;28;106152;-63
2021/11/18 07:42:45;;;;;;;;;6.25;5.50;;;;;14.61;49.67;99234.16;4818287;28;102221;-64
2021/11/18 07:45:13;;;;;;;;;6.00;5.00;;;;;14.63;49.85;99245.69;4786121;29;103959;-63
2021/11/18 07:47:40;;;;;;;;;5.00;5.00;;;;;14.64;49.39;99236.47;4811281;28;102770;-63
2021/11/18 07:50:07;;;;;;;;;6.50;6.00;;;;;14.67;49.75;99241.50;4810834;28;105635;-64
2021/11/18 07:52:35;;;;;;;;;4.75;4.75;;;;;14.69;49.38;99248.41;4813721;28;102550;-63
2021/11/18 07:55:03;;;;;;;;;7.75;7.00;;;;;14.72;49.53;99239.78;4821756;29;103799;-64
2021/11/18 07:57:30;;;;;;;;;4.00;4.00;;;;;14.74;49.83;99236.88;4814273;28;102475;-64
2021/11/18 07:59:57;;;;;;;;;5.50;4.50;;;;;14.77;49.54;99236.44;4811237;28;104857;-64
2021/11/18 08:02:24;;;;;;;;;5.00;5.00;;;;;14.81;49.56;99239.59;4808675;29;102779;-63
2021/11/18 08:04:51;;;;;;;;;5.00;4.50;;;;;14.81;49.66;99237.72;4809156;28;104074;-63
2021/11/18 08:07:18;;;;;;;;;6.25;5.00;;;;;14.85;49.32;99238.13;4805287;28;102636;-63
2021/11/18 08:09:45;;;;;;;;;6.00;5.00;;;;;14.86;49.46;99248.78;4814600;28;102332;-63
2021/11/18 08:12:12;;;;;;;;;4.75;4.75;;;;;14.88;49.72;99243.97;4818832;29;104499;-64
2021/11/18 08:14:39;;;;;;;;;6.00;5.50;;;;;14.90;49.48;99239.16;4803772;28;104094;-64
2021/11/18 08:17:06;;;;;;;;;5.00;5.00;;;;;14.92;49.36;99236.19;4805803;28;102516;-64
2021/11/18 08:19:33;;;;;;;;;5.25;5.25;;;;;14.94;49.67;99245.00;4817482;28;102471;-64
2021/11/18 08:22:00;;;;;;;;;1.00;1.00;;;;;14.95;49.24;99244.78;4810006;29;103629;-64
2021/11/18 08:24:28;;;;;;;;;6.50;5.00;;;;;14.96;49.01;99248.34;4804736;28;107802;-64
2021/11/18 08:26:55;;;;;;;;;4.50;4.50;;;;;14.97;49.61;99247.28;4819597;29;102566;-64
2021/11/18 08:29:24;;;;;;;;;4.00;4.00;;;;;14.97;49.47;99248.13;4804316;28;103766;-64
2021/11/18 08:31:52;;;;;;;;;4.25;4.00;;;;;14.98;49.53;99255.25;4799342;28;103387;-64
2021/11/18 08:34:20;;;;;;;;;7.00;5.50;;;;;14.98;49.72;99255.25;4805787;28;104105;-63
2021/11/18 08:36:47;;;;;;;;;5.50;5.50;;;;;14.97;49.37;99261.75;4808422;29;102359;-63
2021/11/18 08:39:19;;;;;;;;;5.75;5.50;;;;;14.99;49.50;99256.09;4796440;29;102273;-63
2021/11/18 08:41:47;;;;;;;;;3.00;3.00;;;;;14.98;49.37;99265.31;4788750;28;102762;-63
2021/11/18 08:44:16;;;;;;;;;6.75;5.00;;;;;14.98;49.53;99270.75;4809330;28;104046;-64
2021/11/18 08:46:47;;;;;;;;;5.75;4.00;;;;;14.99;49.50;99273.28;4817457;28;105302;-64
2021/11/18 08:49:15;;;;;;;;;6.75;5.00;;;;;14.98;49.27;99266.16;4813493;28;102246;-64
2021/11/18 08:51:42;;;;;;;;;4.75;4.00;;;;;15.00;49.20;99271.38;4804522;29;103009;-64
2021/11/18 08:54:11;;;;;;;;;7.25;5.00;;;;;15.00;49.53;99276.81;4823785;28;104383;-64
2021/11/18 08:56:38;;;;;;;;;4.50;4.00;;;;;14.98;49.66;99276.22;4810696;28;102648;-64
2021/11/18 08:59:06;;;;;;;;;5.75;5.00;;;;;14.99;49.28;99270.56;4810201;28;102910;-64
2021/11/18 09:01:44;;;;;;;;;5.50;4.00;;;;;14.98;49.21;99282.50;4821864;28;102574;-64
2021/11/18 09:04:15;;;;;;;;;5.50;4.25;;;;;15.00;49.55;99287.72;4819410;28;108897;-63
2021/11/18 09:06:42;;;;;;;;;7.75;5.00;;;;;14.97;49.32;99291.72;4813543;28;102612;-64
2021/11/18 09:09:09;;;;;;;;;4.00;4.00;;;;;14.98;49.56;99293.38;4813160;28;103860;-64
2021/11/18 09:11:37;;;;;;;;;5.25;5.00;;;;;14.98;49.36;99304.28;4806816;29;102742;-64
2021/11/18 09:14:04;;;;;;;;;7.00;5.50;;;;;14.98;49.00;99296.13;4821490;28;104073;-64
2021/11/18 09:16:33;;;;;;;;;7.50;4.75;;;;;14.98;49.60;99308.88;4812087;28;102573;-64
2021/11/18 09:19:01;;;;;;;;;7.75;6.00;;;;;14.98;49.29;99308.88;4807628;29;102649;-64
2021/11/18 09:21:31;;;;;;;;;6.50;5.00;;;;;14.97;49.22;99305.31;4821997;28;102423;-64
2021/11/18 09:24:05;;;;;;;;;5.00;4.25;;;;;14.97;49.19;99299.88;4813994;28;104270;-64
2021/11/18 09:26:33;;;;;;;;;6.00;5.50;;;;;14.98;49.64;99309.72;4812504;29;102400;-64
2021/11/18 09:29:03;;;;;;;;;6.00;6.00;;;;;14.97;49.57;99316.22;4807252;28;102414;-64
2021/11/18 09:31:30;;;;;;;;;6.50;6.00;;;;;14.96;49.25;99300.91;4798807;29;102584;-64
2021/11/18 09:33:58;;;;;;;;;4.00;3.00;;;;;14.97;49.35;99310.78;4802878;28;104233;-64
2021/11/18 09:36:26;;;;;;;;;6.00;5.00;;;;;14.96;49.26;99306.38;4795048;28;104214;-64
2021/11/18 09:38:53;;;;;;;;;3.25;3.25;;;;;14.97;49.41;99310.78;4817261;28;102647;-63
2021/11/18 09:41:27;;;;;;;;;5.50;4.50;;;;;14.97;49.42;99309.94;4818344;28;102560;-63
2021/11/18 09:43:54;;;;;;;;;5.00;4.50;;;;;14.96;49.07;99306.38;4796197;28;102883;-64
2021/11/18 09:46:40;;;;;;;;;5.00;5.00;;;;;14.97;49.18;99310.78;4809376;29;102588;-64
2021/11/18 09:49:28;;;;;;;;;4.50;4.25;;;;;14.97;49.22;99308.06;4800272;28;102250;-64
2021/11/18 09:52:10;;;;;;;;;4.50;4.00;;;;;14.96;49.18;99306.38;4806254;28;102728;-64
2021/11/18 09:55:08;;;;;;;;;7.00;4.25;;;;;14.96;49.10;99300.91;4785778;28;108787;-63
2021/11/18 09:57:35;;;;;;;;;5.00;4.00;;;;;14.97;49.23;99304.47;4814764;28;104826;-64
2021/11/18 10:00:17;;;;;;;;;3.00;3.00;;;;;14.97;49.19;99297.16;4823289;28;102695;-64
2021/11/18 10:03:02;;;;;;;;;4.25;4.25;;;;;14.97;48.59;99297.16;4814282;28;102879;-64
2021/11/18 10:05:59;;;;;;;;;6.50;5.25;;;;;14.98;48.70;99298.84;4809840;28;104102;-64
2021/11/18 10:08:36;;;;;;;;;4.50;4.00;;;;;15.00;49.38;99295.88;4805188;28;102438;-64
2021/11/18 10:11:12;;;;;;;;;5.00;5.00;;;;;15.02;49.27;99291.91;4821374;28;102145;-63
2021/11/18 10:14:09;;;;;;;;;4.75;4.00;;;;;15.04;48.73;99292.53;4818056;28;102214;-64
2021/11/18 10:16:44;;;;;;;;;6.00;6.00;;;;;15.06;49.03;99290.44;4811465;28;109147;-64
2021/11/18 10:19:11;;;;;;;;;4.25;4.00;;;;;15.09;49.10;99278.25;4776275;29;102970;-64
2021/11/18 10:21:41;;;;;;;;;5.00;4.75;;;;;15.09;48.74;99284.56;4793635;29;102390;-64
2021/11/18 10:24:14;;;;;;;;;3.25;3.25;;;;;15.13;49.10;99282.22;4792079;29;102666;-64
2021/11/18 10:26:45;;;;;;;;;5.50;3.75;;;;;15.15;49.06;99282.88;4810516;28;104175;-64
2021/11/18 10:29:23;;;;;;;;;4.00;3.00;;;;;15.19;48.95;99298.56;4809141;28;102442;-64
2021/11/18 10:32:12;;;;;;;;;5.00;4.50;;;;;15.20;48.99;99291.25;4817726;28;102860;-64
2021/11/18 10:35:27;;;;;;;;;4.00;4.00;;;;;15.21;49.08;99287.47;4813015;28;102690;-64
2021/11/18 10:38:23;;;;;;;;;5.00;4.75;;;;;15.22;48.99;99280.13;4808310;28;108880;-64
2021/11/18 10:41:17;;;;;;;;;4.50;4.00;;;;;15.22;49.33;99278.22;4815443;28;103748;-64
2021/11/18 10:44:00;;;;;;;;;4.75;4.75;;;;;15.21;48.93;99275.72;4819692;29;103118;-64
2021/11/18 10:46:35;;;;;;;;;4.00;4.00;;;;;15.22;49.17;99278.22;4799009;28;102752;-64
2021/11/18 10:49:09;;;;;;;;;5.00;5.00;;;;;15.21;48.83;99271.13;4803308;28;109185;-64
2021/11/18 10:51:50;;;;;;;;;3.25;3.25;;;;;15.22;48.97;99277.41;4811802;28;104303;-64
2021/11/18 10:54:20;;;;;;;;;4.00;4.00;;;;;15.23;48.98;99265.44;4806294;28;102690;-64
2021/11/18 10:56:59;;;;;;;;;4.00;4.00;;;;;15.21;48.79;99262.94;4813739;28;102243;-64
2021/11/18 10:59:36;;;;;;;;;6.50;4.00;;;;;15.21;48.83;99265.69;4820079;28;103787;-64
2021/11/18 11:02:29;;;;;;;;;3.00;3.00;;;;;15.22;48.76;99271.97;4822524;28;102567;-64
2021/11/18 11:04:58;;;;;;;;;3.00;3.00;;;;;15.21;49.17;99259.38;4800467;28;102480;-64
2021/11/18 11:07:39;;;;;;;;;5.25;5.00;;;;;15.21;48.37;99265.69;4798654;28;102563;-68
2021/11/18 11:10:12;;;;;;;;;5.00;3.00;;;;;15.21;48.96;99260.22;4803167;28;108946;-68
2021/11/18 11:13:05;;;;;;;;;4.00;3.50;;;;;15.22;48.79;99261.06;4817138;28;103116;-68
2021/11/18 11:15:50;;;;;;;;;3.25;3.00;;;;;15.21;48.92;99256.66;4816674;28;102729;-68
2021/11/18 11:18:38;;;;;;;;;4.00;4.00;;;;;15.21;48.89;99251.22;4806116;29;105636;-68
2021/11/18 11:21:27;;;;;;;;;5.50;5.00;;;;;15.19;48.86;99252.25;4805821;29;108932;-68
2021/11/18 11:24:10;;;;;;;;;5.50;4.00;;;;;15.19;48.80;99263.16;4796639;29;103709;-69
2021/11/18 11:26:49;;;;;;;;;4.00;3.50;;;;;15.18;48.72;99252.47;4787108;29;102782;-69
2021/11/18 11:29:28;;;;;;;;;3.00;3.00;;;;;15.18;48.96;99255.19;4801347;29;102482;-68
2021/11/18 11:32:43;;;;;;;;;3.00;3.00;;;;;15.16;49.00;99246.41;4801792;28;104090;-69
2021/11/18 11:35:44;;;;;;;;;3.25;3.25;;;;;15.16;49.45;99238.25;4773999;29;104009;-69
2021/11/18 11:38:37;;;;;;;;;4.00;3.00;;;;;15.15;48.64;99240.13;4815414;28;102434;-68
2021/11/18 11:41:35;;;;;;;;;3.00;2.75;;;;;15.14;48.76;99248.50;4807158;28;103131;-69